Sirius — JD2507 — position and weather

sailwx.info

Track history (hours):
 
Tides and Currents Weather Stations Pressure Air Temp Water Temp Dewpoint Dewpoint Depression Visibility Wind Speed Wind Dir Waves Ship Positions

Sirius

Last reported at 2017-Sep-10 23:27 UTC. Time now 2017-Sep-24 19:12 UTC.
Position N 34°38' E 135°29'.
Warning: this ship's position is 13 days out of date.

Length 38 m; draft 2 m.

Type: Other ship. MMSI: 431000347.

Date/timePositionNaut miles runAvg speedWind from/ knotsBaromVisibWave heightAir tempDewpointWater temp
2017-Sep-10 23:27N 34°38' E 135°29'1 2.2
2017-Sep-10 23:00N 34°37' E 135°27'612.4
2017-Sep-10 22:30N 34°39' E 135°20'713.6
2017-Sep-10 22:00N 34°40' E 135°12'0 0.8
2017-Sep-10 21:30N 34°40' E 135°12'0 0.0
2017-Sep-10 07:56N 34°40' E 135°12'614.2
2017-Sep-10 07:30N 34°36' E 135°07'6 7.4
2017-Sep-10 06:39N 34°37' E 134°60'1 0.6
2017-Sep-10 05:10N 34°36' E 135°01'1 8.8
2017-Sep-10 05:00N 34°35' E 135°02'6 7.2
2017-Sep-10 04:12N 34°36' E 134°55'4 9.2
2017-Sep-10 03:47N 34°38' E 134°59'413.2
2017-Sep-10 03:30N 34°37' E 135°03'0 0.0
2017-Sep-09 21:59N 34°38' E 135°03'3 6.0
2017-Sep-09 21:28N 34°38' E 134°59'5 9.8
2017-Sep-09 21:00N 34°36' E 135°05'3 5.1
2017-Sep-09 20:30N 34°35' E 135°07'611.2
2017-Sep-09 20:00N 34°39' E 135°11'1 2.8
2017-Sep-09 19:30N 34°40' E 135°12'0 0.0
2017-Sep-08 20:05N 34°40' E 135°12'0 3.2
2017-Sep-08 20:00N 34°40' E 135°12'815.2
2017-Sep-08 19:30N 34°36' E 135°05'5 9.9
2017-Sep-08 18:59N 34°37' E 134°59'4 8.9
2017-Sep-08 18:30N 34°36' E 135°04'3 5.7
2017-Sep-08 18:00N 34°35' E 135°07'4 7.9
2017-Sep-08 17:29N 34°37' E 135°03'0 0.0
2017-Sep-08 10:53N 34°38' E 135°03'2 4.0
2017-Sep-08 10:30N 34°36' E 135°02'3 3.6
2017-Sep-08 09:43N 34°38' E 134°59'312.6
2017-Sep-08 09:30N 34°37' E 135°02'1 0.1
2017-Sep-08 02:41N 34°37' E 135°03'213.7
2017-Sep-08 02:30N 34°37' E 135°06'816.7
2017-Sep-08 02:00N 34°35' E 135°16'816.2
2017-Sep-08 01:30N 34°34' E 135°26'1 1.5
2017-Sep-08 00:55N 34°33' E 135°24'4 6.5
2017-Sep-08 00:22N 34°33' E 135°20'1 3.4
2017-Sep-08 00:00N 34°34' E 135°19'3 5.6
2017-Sep-07 23:30N 34°35' E 135°16'611.8
2017-Sep-07 23:00N 34°40' E 135°12'1 0.0
2017-Sep-07 06:52N 34°40' E 135°12'411.5
2017-Sep-07 06:31N 34°38' E 135°08'6 4.9
2017-Sep-07 05:17N 34°37' E 135°01'2 7.7
2017-Sep-07 05:01N 34°36' E 135°03'3 5.3
2017-Sep-07 04:31N 34°35' E 135°06'3 5.1
2017-Sep-07 04:01N 34°36' E 135°09'510.5
2017-Sep-07 03:30N 34°40' E 135°12'0 0.0
2017-Sep-07 03:01N 34°40' E 135°12'0 0.0
2017-Sep-06 20:12N 34°40' E 135°12'2 9.7
2017-Sep-06 20:01N 34°39' E 135°11'815.1
2017-Sep-06 19:31N 34°37' E 135°02'1 1.5
2017-Sep-06 19:00N 34°37' E 135°01'510.2
2017-Sep-06 18:30N 34°35' E 135°07'1 1.9
2017-Sep-06 18:00N 34°36' E 135°06'3 6.1
2017-Sep-06 17:30N 34°38' E 135°03'0 0.0
2017-Sep-06 08:28N 34°38' E 135°03'2 4.5
2017-Sep-06 08:00N 34°35' E 135°03'5 4.6
2017-Sep-06 07:00N 34°38' E 134°59'612.8
2017-Sep-06 06:30N 34°37' E 135°06'611.3
2017-Sep-06 06:00N 34°40' E 135°12'0 0.1
2017-Sep-06 05:30N 34°40' E 135°12'0 0.0
2017-Sep-04 06:40N 34°40' E 135°12'1 8.9
2017-Sep-04 06:30N 34°39' E 135°11'814.8
2017-Sep-04 06:00N 34°36' E 135°03'4 4.4
2017-Sep-04 05:06N 34°38' E 134°59'3 9.8
2017-Sep-04 04:47N 34°38' E 135°03'0 0.2
2017-Sep-04 04:30N 34°38' E 135°03'0 0.0
2017-Sep-04 04:00N 34°38' E 135°03'0 0.0
2017-Sep-03 18:35N 34°38' E 135°03'0 0.0
2017-Sep-03 18:30N 34°38' E 135°03'2 1.9
2017-Sep-03 17:32N 34°37' E 135°01'012.0
2017-Sep-03 17:30N 34°37' E 135°01'510.6
2017-Sep-03 17:00N 34°34' E 135°07'3 6.3
2017-Sep-03 16:30N 34°36' E 135°10'5 9.2
2017-Sep-03 16:00N 34°40' E 135°12'0 0.0
2017-Sep-03 06:53N 34°40' E 135°12'513.8
2017-Sep-03 06:31N 34°36' E 135°10'14 7.3
2017-Sep-03 04:39N 34°24' E 135°02'215.3
2017-Sep-03 04:30N 34°25' E 135°04'815.5
2017-Sep-03 04:00N 34°30' E 135°12'714.1
2017-Sep-03 03:30N 34°33' E 135°19'4 6.8
2017-Sep-03 02:58N 34°34' E 135°24'1 1.2
2017-Sep-03 02:30N 34°33' E 135°24'2 0.1
2017-Sep-02 00:58N 34°31' E 135°24'2 4.8
2017-Sep-02 00:30N 34°33' E 135°24'4 7.4
2017-Sep-01 23:59N 34°33' E 135°19'4 7.7
2017-Sep-01 23:30N 34°31' E 135°15'2212.2
2017-Sep-01 21:42N 34°14' E 134°59'313.1
2017-Sep-01 21:30N 34°11' E 134°60'16 8.0
2017-Sep-01 19:33N 34°27' E 135°02'114.2
2017-Sep-01 19:29N 34°27' E 135°03'714.3
2017-Sep-01 19:00N 34°33' E 135°07'714.0
2017-Sep-01 18:31N 34°39' E 135°11'1 0.1
2017-Sep-01 03:00N 34°40' E 135°12'612.7
2017-Sep-01 02:30N 34°36' E 135°07'6 6.3
2017-Sep-01 01:31N 34°37' E 134°59'113.7
2017-Sep-01 01:25N 34°37' E 135°01'513.1
2017-Sep-01 01:00N 34°38' E 135°08'5 9.3
2017-Sep-01 00:30N 34°40' E 135°12'0 0.0
2017-Sep-01 00:01N 34°40' E 135°12'  
Track history (hours):
 
Tides and Currents Weather Stations Pressure Air Temp Water Temp Dewpoint Dewpoint Depression Visibility Wind Speed Wind Dir Waves Ship Positions

Sirius

Last reported at 2017-Sep-10 23:27 UTC. Time now 2017-Sep-24 19:12 UTC.
Position N 34°38' E 135°29'.
Warning: this ship's position is 13 days out of date.

Length 38 m; draft 2 m.

Type: Other ship. MMSI: 431000347.

Date/timePositionNaut miles runAvg speedWind from/ knotsBaromVisibWave heightAir tempDewpointWater temp
2017-Sep-10 23:27N 34°38' E 135°29'1 2.2
2017-Sep-10 23:00N 34°37' E 135°27'612.4
2017-Sep-10 22:30N 34°39' E 135°20'713.6
2017-Sep-10 22:00N 34°40' E 135°12'0 0.8
2017-Sep-10 21:30N 34°40' E 135°12'0 0.0
2017-Sep-10 07:56N 34°40' E 135°12'614.2
2017-Sep-10 07:30N 34°36' E 135°07'6 7.4
2017-Sep-10 06:39N 34°37' E 134°60'1 0.6
2017-Sep-10 05:10N 34°36' E 135°01'1 8.8
2017-Sep-10 05:00N 34°35' E 135°02'6 7.2
2017-Sep-10 04:12N 34°36' E 134°55'4 9.2
2017-Sep-10 03:47N 34°38' E 134°59'413.2
2017-Sep-10 03:30N 34°37' E 135°03'0 0.0
2017-Sep-09 21:59N 34°38' E 135°03'3 6.0
2017-Sep-09 21:28N 34°38' E 134°59'5 9.8
2017-Sep-09 21:00N 34°36' E 135°05'3 5.1
2017-Sep-09 20:30N 34°35' E 135°07'611.2
2017-Sep-09 20:00N 34°39' E 135°11'1 2.8
2017-Sep-09 19:30N 34°40' E 135°12'0 0.0
2017-Sep-08 20:05N 34°40' E 135°12'0 3.2
2017-Sep-08 20:00N 34°40' E 135°12'815.2
2017-Sep-08 19:30N 34°36' E 135°05'5 9.9
2017-Sep-08 18:59N 34°37' E 134°59'4 8.9
2017-Sep-08 18:30N 34°36' E 135°04'3 5.7
2017-Sep-08 18:00N 34°35' E 135°07'4 7.9
2017-Sep-08 17:29N 34°37' E 135°03'0 0.0
2017-Sep-08 10:53N 34°38' E 135°03'2 4.0
2017-Sep-08 10:30N 34°36' E 135°02'3 3.6
2017-Sep-08 09:43N 34°38' E 134°59'312.6
2017-Sep-08 09:30N 34°37' E 135°02'1 0.1
2017-Sep-08 02:41N 34°37' E 135°03'213.7
2017-Sep-08 02:30N 34°37' E 135°06'816.7
2017-Sep-08 02:00N 34°35' E 135°16'816.2
2017-Sep-08 01:30N 34°34' E 135°26'1 1.5
2017-Sep-08 00:55N 34°33' E 135°24'4 6.5
2017-Sep-08 00:22N 34°33' E 135°20'1 3.4
2017-Sep-08 00:00N 34°34' E 135°19'3 5.6
2017-Sep-07 23:30N 34°35' E 135°16'611.8
2017-Sep-07 23:00N 34°40' E 135°12'1 0.0
2017-Sep-07 06:52N 34°40' E 135°12'411.5
2017-Sep-07 06:31N 34°38' E 135°08'6 4.9
2017-Sep-07 05:17N 34°37' E 135°01'2 7.7
2017-Sep-07 05:01N 34°36' E 135°03'3 5.3
2017-Sep-07 04:31N 34°35' E 135°06'3 5.1
2017-Sep-07 04:01N 34°36' E 135°09'510.5
2017-Sep-07 03:30N 34°40' E 135°12'0 0.0
2017-Sep-07 03:01N 34°40' E 135°12'0 0.0
2017-Sep-06 20:12N 34°40' E 135°12'2 9.7
2017-Sep-06 20:01N 34°39' E 135°11'815.1
2017-Sep-06 19:31N 34°37' E 135°02'1 1.5
2017-Sep-06 19:00N 34°37' E 135°01'510.2
2017-Sep-06 18:30N 34°35' E 135°07'1 1.9
2017-Sep-06 18:00N 34°36' E 135°06'3 6.1
2017-Sep-06 17:30N 34°38' E 135°03'0 0.0
2017-Sep-06 08:28N 34°38' E 135°03'2 4.5
2017-Sep-06 08:00N 34°35' E 135°03'5 4.6
2017-Sep-06 07:00N 34°38' E 134°59'612.8
2017-Sep-06 06:30N 34°37' E 135°06'611.3
2017-Sep-06 06:00N 34°40' E 135°12'0 0.1
2017-Sep-06 05:30N 34°40' E 135°12'0 0.0
2017-Sep-04 06:40N 34°40' E 135°12'1 8.9
2017-Sep-04 06:30N 34°39' E 135°11'814.8
2017-Sep-04 06:00N 34°36' E 135°03'4 4.4
2017-Sep-04 05:06N 34°38' E 134°59'3 9.8
2017-Sep-04 04:47N 34°38' E 135°03'0 0.2
2017-Sep-04 04:30N 34°38' E 135°03'0 0.0
2017-Sep-04 04:00N 34°38' E 135°03'0 0.0
2017-Sep-03 18:35N 34°38' E 135°03'0 0.0
2017-Sep-03 18:30N 34°38' E 135°03'2 1.9
2017-Sep-03 17:32N 34°37' E 135°01'012.0
2017-Sep-03 17:30N 34°37' E 135°01'510.6
2017-Sep-03 17:00N 34°34' E 135°07'3 6.3
2017-Sep-03 16:30N 34°36' E 135°10'5 9.2
2017-Sep-03 16:00N 34°40' E 135°12'0 0.0
2017-Sep-03 06:53N 34°40' E 135°12'513.8
2017-Sep-03 06:31N 34°36' E 135°10'14 7.3
2017-Sep-03 04:39N 34°24' E 135°02'215.3
2017-Sep-03 04:30N 34°25' E 135°04'815.5
2017-Sep-03 04:00N 34°30' E 135°12'714.1
2017-Sep-03 03:30N 34°33' E 135°19'4 6.8
2017-Sep-03 02:58N 34°34' E 135°24'1 1.2
2017-Sep-03 02:30N 34°33' E 135°24'2 0.1
2017-Sep-02 00:58N 34°31' E 135°24'2 4.8
2017-Sep-02 00:30N 34°33' E 135°24'4 7.4
2017-Sep-01 23:59N 34°33' E 135°19'4 7.7
2017-Sep-01 23:30N 34°31' E 135°15'2212.2
2017-Sep-01 21:42N 34°14' E 134°59'313.1
2017-Sep-01 21:30N 34°11' E 134°60'16 8.0
2017-Sep-01 19:33N 34°27' E 135°02'114.2
2017-Sep-01 19:29N 34°27' E 135°03'714.3
2017-Sep-01 19:00N 34°33' E 135°07'714.0
2017-Sep-01 18:31N 34°39' E 135°11'1 0.1
2017-Sep-01 03:00N 34°40' E 135°12'612.7
2017-Sep-01 02:30N 34°36' E 135°07'6 6.3
2017-Sep-01 01:31N 34°37' E 134°59'113.7
2017-Sep-01 01:25N 34°37' E 135°01'513.1
2017-Sep-01 01:00N 34°38' E 135°08'5 9.3
2017-Sep-01 00:30N 34°40' E 135°12'0 0.0
2017-Sep-01 00:01N 34°40' E 135°12'  

Dump ship's entire track history